Terminal Aerodrome Forecast
Issued by NWS

Home | Current Version | Previous Version | Text Only | Print | Product List | Glossary On
Versions: 1 2 3 4 5 6 7 8 9 10 11 12 13 14 15 16 17 18 19 20 21 22 23 24 25 26 27 28 29 30
000
FTUS41 KALY 270700 AAB
TAFPSF
TAF AMD
KPSF 270752Z 2708/2806 03009KT 3/4SM -SN BR VV011
      TEMPO 2708/2712 2SM -SN BR OVC008
     FM271200 02014G24KT 1/2SM SN FZFG VV004
     FM272200 34015G28KT 5SM -SN BR OVC025
     FM280000 32012G22KT P6SM OVC045=

USA.gov is the U.S. government's official web portal to all federal, state and local government web resources and services.